Time;durP1;ratioP1;P1;durP2;ratioP2;P2;SDS_P1;SDS_P2;PMS_P1;PMS_P2;Temp;Humidity;BMP_temperature;BMP_pressure;BME280_temperature;BME280_humidity;BME280_pressure;Samples;Min_cycle;Max_cycle;Signal;HPM_P1;HPM_P2
2022/01/20 04:59:10;;;;;;;9.02;1.00;;;;;;;;;;6202671;22;20031;-80
2022/01/20 05:01:48;;;;;;;7.03;1.17;;;;;;;;;;6160290;22;20058;-80
2022/01/20 05:20:41;;;;;;;8.30;1.65;;;;;;;;;;6119843;23;20020;-77
2022/01/20 05:41:44;;;;;;;4.35;1.13;;;;;;;;;;5893394;24;20026;-81
2022/01/20 06:00:42;;;;;;;8.93;2.25;;;;;;;;;;5704644;24;20938;-81
2022/01/20 06:03:42;;;;;;;9.48;1.65;;;;;;;;;;5701039;24;20087;-79
2022/01/20 06:10:13;;;;;;;10.95;1.58;;;;;;;;;;5841902;24;20166;-80
2022/01/20 06:26:57;;;;;;;11.02;3.65;;;;;;;;;;5962705;23;20030;-78
2022/01/20 06:29:28;;;;;;;9.38;2.40;;;;;;;;;;5982900;23;20100;-79
2022/01/20 06:32:10;;;;;;;11.25;2.85;;;;;;;;;;6041162;23;20024;-79
2022/01/20 06:38:22;;;;;;;;;;;;;;;;;;;;;
2022/01/20 06:40:59;;;;;;;6.72;1.35;;;;;;;;;;6151012;23;20549;-79
2022/01/20 06:43:41;;;;;;;8.48;1.70;;;;;;;;;;6138719;23;20059;-77
2022/01/20 06:53:03;;;;;;;9.27;1.33;;;;;;;;;;6151342;23;20024;-84
2022/01/20 06:55:28;;;;;;;6.75;1.50;;;;;;;;;;6140522;23;20027;-79
2022/01/20 06:57:54;;;;;;;8.73;1.35;;;;;;;;;;6178622;23;20414;-78
2022/01/20 07:00:23;;;;;;;3.78;1.08;;;;;;;;;;6180047;23;20052;-79
2022/01/20 07:02:50;;;;;;;3.63;0.77;;;;;;;;;;6175740;23;20057;-79
2022/01/20 07:05:18;;;;;;;4.32;1.23;;;;;;;;;;6155026;23;20016;-79
2022/01/20 07:07:44;;;;;;;9.95;1.10;;;;;;;;;;6180861;23;20037;-79
2022/01/20 07:10:12;;;;;;;4.45;0.82;;;;;;;;;;6178906;23;20021;-78
2022/01/20 07:15:29;;;;;;;4.13;0.75;;;;;;;;;;6178335;23;20100;-79
2022/01/20 07:17:57;;;;;;;6.28;2.30;;;;;;;;;;6141679;23;20039;-78
2022/01/20 07:27:56;;;;;;;9.60;1.38;;;;;;;;;;6182593;23;20028;-79
2022/01/20 07:38:06;;;;;;;5.47;1.30;;;;;;;;;;6056685;23;20026;-81
2022/01/20 07:41:03;;;;;;;4.65;1.65;;;;;;;;;;6045345;23;20027;-80
2022/01/20 08:53:37;;;;;;;;;;;;;;;;;;;;;
2022/01/20 12:49:16;;;;;;;10.70;1.55;;;;;;;;;;6254390;22;20022;-80
2022/01/20 12:51:44;;;;;;;10.90;1.98;;;;;;;;;;6246221;22;20069;-81
2022/01/20 12:54:12;;;;;;;20.98;2.00;;;;;;;;;;6239333;22;20016;-83
2022/01/20 12:56:41;;;;;;;12.02;2.03;;;;;;;;;;6248660;22;20395;-81
2022/01/20 12:59:07;;;;;;;13.95;1.80;;;;;;;;;;6241315;22;20022;-81
2022/01/20 13:01:45;;;;;;;11.60;2.00;;;;;;;;;;6249621;22;20428;-81
2022/01/20 13:04:16;;;;;;;8.90;2.33;;;;;;;;;;6250803;22;20411;-80
2022/01/20 13:06:51;;;;;;;9.20;2.28;;;;;;;;;;6276740;22;20011;-81
2022/01/20 13:09:19;;;;;;;11.00;2.45;;;;;;;;;;6251422;22;20464;-80
2022/01/20 13:12:08;;;;;;;7.13;1.85;;;;;;;;;;6249183;22;20019;-82
2022/01/20 13:14:48;;;;;;;5.82;2.13;;;;;;;;;;6253217;22;20011;-81
2022/01/20 13:17:22;;;;;;;14.50;2.83;;;;;;;;;;6248530;22;20372;-80
2022/01/20 13:19:49;;;;;;;8.82;2.08;;;;;;;;;;6269244;22;20020;-80
2022/01/20 13:22:28;;;;;;;10.70;2.05;;;;;;;;;;6265482;22;20007;-80
2022/01/20 13:25:04;;;;;;;12.90;2.78;;;;;;;;;;6274208;22;20083;-81
2022/01/20 13:27:30;;;;;;;7.75;2.00;;;;;;;;;;6247910;22;20086;-81
2022/01/20 13:29:55;;;;;;;12.48;2.17;;;;;;;;;;6248891;22;20041;-80
2022/01/20 13:32:21;;;;;;;5.95;1.70;;;;;;;;;;6249114;22;20574;-81
2022/01/20 13:35:00;;;;;;;14.25;2.45;;;;;;;;;;6248354;22;20086;-80
2022/01/20 13:37:47;;;;;;;;;;;;;;;;;;;;;
2022/01/20 13:40:21;;;;;;;9.13;1.88;;;;;;;;;;6263815;22;20440;-82
2022/01/20 13:45:42;;;;;;;12.10;2.05;;;;;;;;;;6240957;22;20027;-80
2022/01/20 13:48:09;;;;;;;17.25;2.20;;;;;;;;;;6223985;22;20095;-81
2022/01/20 13:50:37;;;;;;;13.77;2.70;;;;;;;;;;6243988;22;20090;-80
2022/01/20 13:53:17;;;;;;;12.80;2.10;;;;;;;;;;6244652;22;20135;-80
2022/01/20 13:55:45;;;;;;;16.23;3.03;;;;;;;;;;6241980;22;20389;-80
2022/01/20 13:58:22;;;;;;;11.68;3.97;;;;;;;;;;6268255;22;20070;-81
2022/01/20 14:00:49;;;;;;;9.80;3.25;;;;;;;;;;6243652;22;20460;-81
2022/01/20 14:03:16;;;;;;;15.43;5.68;;;;;;;;;;6236915;22;20102;-79
2022/01/20 14:05:44;;;;;;;17.80;6.05;;;;;;;;;;6226894;22;20018;-80
2022/01/20 14:08:11;;;;;;;27.77;8.68;;;;;;;;;;6245662;22;20020;-79
2022/01/20 14:10:37;;;;;;;22.10;6.15;;;;;;;;;;6238092;22;20235;-80
2022/01/20 14:13:03;;;;;;;20.73;4.72;;;;;;;;;;6244109;22;20098;-80
2022/01/20 14:15:29;;;;;;;11.55;2.50;;;;;;;;;;6237956;22;20043;-79
2022/01/20 14:17:58;;;;;;;9.98;2.42;;;;;;;;;;6238580;22;20465;-79
2022/01/20 14:20:27;;;;;;;12.88;3.40;;;;;;;;;;6244411;22;20035;-80
2022/01/20 14:22:54;;;;;;;10.02;3.55;;;;;;;;;;6244561;22;20019;-81
2022/01/20 14:25:27;;;;;;;10.00;3.15;;;;;;;;;;6244475;22;20023;-83
2022/01/20 14:27:56;;;;;;;13.55;3.17;;;;;;;;;;6269623;22;20352;-81
2022/01/20 14:30:24;;;;;;;14.18;2.63;;;;;;;;;;6239973;22;20011;-80
2022/01/20 14:32:53;;;;;;;11.45;2.72;;;;;;;;;;6242991;22;20355;-81
2022/01/20 14:35:20;;;;;;;7.65;3.20;;;;;;;;;;6245792;22;20071;-81
2022/01/20 14:37:46;;;;;;;9.50;2.40;;;;;;;;;;6272219;22;20420;-81
2022/01/20 14:40:17;;;;;;;11.73;2.33;;;;;;;;;;6271376;22;20031;-81
2022/01/20 14:42:43;;;;;;;14.70;2.35;;;;;;;;;;6272807;22;20220;-81
2022/01/20 14:45:14;;;;;;;9.02;2.13;;;;;;;;;;6273362;22;20082;-80
2022/01/20 14:47:40;;;;;;;9.45;2.30;;;;;;;;;;6247208;22;20031;-81
2022/01/20 14:50:10;;;;;;;10.10;2.17;;;;;;;;;;6221648;22;20015;-80
2022/01/20 14:52:39;;;;;;;10.45;2.25;;;;;;;;;;6222516;22;20011;-81
2022/01/20 14:55:06;;;;;;;13.30;2.20;;;;;;;;;;6222671;22;20253;-83
2022/01/20 14:57:32;;;;;;;14.60;2.70;;;;;;;;;;6222318;22;20525;-84
2022/01/20 14:59:58;;;;;;;14.10;4.95;;;;;;;;;;6220031;22;20015;-83
2022/01/20 15:02:24;;;;;;;16.30;5.80;;;;;;;;;;6243588;22;20020;-83
2022/01/20 15:04:52;;;;;;;10.65;3.75;;;;;;;;;;6221503;22;20069;-82
2022/01/20 15:07:17;;;;;;;16.45;4.22;;;;;;;;;;6222473;22;20069;-83
2022/01/20 15:09:43;;;;;;;9.60;2.95;;;;;;;;;;6222297;22;20016;-83
2022/01/20 15:12:12;;;;;;;8.45;2.55;;;;;;;;;;6221891;22;20008;-82
2022/01/20 15:14:38;;;;;;;8.10;2.40;;;;;;;;;;6220872;22;20028;-83
2022/01/20 15:17:05;;;;;;;10.40;2.40;;;;;;;;;;6222353;22;20081;-84
2022/01/20 15:19:33;;;;;;;16.13;5.30;;;;;;;;;;6221168;22;20015;-84
2022/01/20 15:21:59;;;;;;;16.92;5.95;;;;;;;;;;6222414;22;20346;-84
2022/01/20 15:24:26;;;;;;;13.00;2.97;;;;;;;;;;6245435;22;20018;-84
2022/01/20 15:26:52;;;;;;;10.70;3.15;;;;;;;;;;6220750;22;20048;-84
2022/01/20 15:29:18;;;;;;;11.65;2.72;;;;;;;;;;6247313;22;20011;-84
2022/01/20 15:31:44;;;;;;;10.80;2.85;;;;;;;;;;6246600;22;20087;-84
2022/01/20 15:34:13;;;;;;;6.13;2.90;;;;;;;;;;6223902;22;20020;-84
2022/01/20 15:36:40;;;;;;;14.57;2.85;;;;;;;;;;6222378;22;20094;-84
2022/01/20 15:39:07;;;;;;;6.78;2.75;;;;;;;;;;6221318;22;20022;-84
2022/01/20 15:41:39;;;;;;;11.40;3.13;;;;;;;;;;6247884;22;20016;-84
2022/01/20 15:44:05;;;;;;;9.23;3.33;;;;;;;;;;6246023;22;20020;-84
2022/01/20 15:46:32;;;;;;;8.98;1.92;;;;;;;;;;6246410;22;20082;-83
2022/01/20 15:48:58;;;;;;;9.18;3.45;;;;;;;;;;6262339;22;20091;-83
2022/01/20 15:51:24;;;;;;;9.45;3.65;;;;;;;;;;6247671;22;20089;-84
2022/01/20 15:53:53;;;;;;;9.13;2.78;;;;;;;;;;6246161;22;20023;-83
2022/01/20 15:56:19;;;;;;;8.25;3.60;;;;;;;;;;6255216;22;20400;-83
2022/01/20 15:58:44;;;;;;;11.73;4.38;;;;;;;;;;6223691;22;20023;-83
2022/01/20 16:01:10;;;;;;;8.30;2.40;;;;;;;;;;6245717;22;20015;-83
2022/01/20 16:03:36;;;;;;;10.10;3.10;;;;;;;;;;6245755;22;20026;-84
2022/01/20 16:06:03;;;;;;;4.38;1.35;;;;;;;;;;6244528;22;20022;-82
2022/01/20 16:08:28;;;;;;;11.00;1.85;;;;;;;;;;6245863;22;20345;-83
2022/01/20 16:10:55;;;;;;;9.57;4.18;;;;;;;;;;6246508;22;20016;-83
2022/01/20 16:13:21;;;;;;;13.68;3.42;;;;;;;;;;6246531;22;20067;-83
2022/01/20 16:15:47;;;;;;;9.27;2.33;;;;;;;;;;6244762;22;20540;-83
2022/01/20 16:18:19;;;;;;;25.58;7.65;;;;;;;;;;6271276;22;20019;-83
2022/01/20 16:20:48;;;;;;;71.50;22.25;;;;;;;;;;6245893;22;20022;-83
2022/01/20 16:23:15;;;;;;;73.03;25.98;;;;;;;;;;6246269;22;20078;-83
2022/01/20 16:25:42;;;;;;;23.73;8.45;;;;;;;;;;6271021;22;20019;-83
2022/01/20 16:28:08;;;;;;;11.55;4.70;;;;;;;;;;6244524;22;20019;-83
2022/01/20 16:30:34;;;;;;;13.82;6.68;;;;;;;;;;6271376;22;20012;-83
2022/01/20 16:33:00;;;;;;;7.13;4.28;;;;;;;;;;6245638;22;20095;-83
2022/01/20 16:35:26;;;;;;;12.32;5.57;;;;;;;;;;6269362;22;20015;-83
2022/01/20 16:37:53;;;;;;;10.48;5.60;;;;;;;;;;6241330;22;20035;-83
2022/01/20 16:40:21;;;;;;;12.77;2.20;;;;;;;;;;6268969;22;20011;-83
2022/01/20 16:42:47;;;;;;;9.73;1.92;;;;;;;;;;6241136;22;20023;-83
2022/01/20 16:45:13;;;;;;;9.63;1.98;;;;;;;;;;6242861;22;20464;-82
2022/01/20 16:47:41;;;;;;;5.65;1.42;;;;;;;;;;6244229;22;20015;-82
2022/01/20 16:50:09;;;;;;;6.95;1.35;;;;;;;;;;6272297;22;20034;-82
2022/01/20 16:52:34;;;;;;;8.60;1.50;;;;;;;;;;6245229;22;20094;-82
2022/01/20 16:55:00;;;;;;;2.95;1.00;;;;;;;;;;6231712;22;20019;-82
2022/01/20 16:57:26;;;;;;;8.10;1.30;;;;;;;;;;6245222;22;20019;-83
2022/01/20 16:59:53;;;;;;;6.78;2.08;;;;;;;;;;6247547;22;20019;-82
2022/01/20 17:02:27;;;;;;;9.43;2.63;;;;;;;;;;6248414;22;20022;-82
2022/01/20 17:04:53;;;;;;;4.43;1.55;;;;;;;;;;6250734;22;20011;-82
2022/01/20 17:07:19;;;;;;;10.45;2.85;;;;;;;;;;6248364;22;20034;-83
2022/01/20 17:09:45;;;;;;;6.72;2.00;;;;;;;;;;6247801;22;20447;-82
2022/01/20 17:12:12;;;;;;;7.13;2.13;;;;;;;;;;6248761;22;20031;-83
2022/01/20 17:14:38;;;;;;;9.75;3.13;;;;;;;;;;6250169;22;20021;-82
2022/01/20 17:17:04;;;;;;;9.63;2.50;;;;;;;;;;6274898;22;20064;-82
2022/01/20 17:19:30;;;;;;;10.68;4.28;;;;;;;;;;6250133;22;20019;-82
2022/01/20 17:21:57;;;;;;;12.77;6.72;;;;;;;;;;6251626;22;20034;-82
2022/01/20 17:24:23;;;;;;;8.77;3.83;;;;;;;;;;6278371;22;20102;-82
2022/01/20 17:26:48;;;;;;;7.05;1.92;;;;;;;;;;6277063;22;20015;-82
2022/01/20 17:29:14;;;;;;;5.65;2.35;;;;;;;;;;6255359;22;20399;-82
2022/01/20 17:31:41;;;;;;;8.18;4.50;;;;;;;;;;6224949;22;20015;-82
2022/01/20 17:34:10;;;;;;;7.38;2.70;;;;;;;;;;6227263;22;20048;-82
2022/01/20 17:36:39;;;;;;;6.50;3.25;;;;;;;;;;6220469;22;20038;-82
2022/01/20 17:39:09;;;;;;;10.77;3.28;;;;;;;;;;6249874;22;20078;-82
2022/01/20 17:41:39;;;;;;;6.32;2.53;;;;;;;;;;6259147;22;20086;-82
2022/01/20 17:44:06;;;;;;;9.13;2.67;;;;;;;;;;6249964;22;20015;-83
2022/01/20 17:46:34;;;;;;;6.68;2.08;;;;;;;;;;6276176;22;20475;-82
2022/01/20 17:49:02;;;;;;;6.78;2.20;;;;;;;;;;6245101;22;20091;-85
2022/01/20 17:51:29;;;;;;;7.93;1.50;;;;;;;;;;6206247;22;20403;-85
2022/01/20 17:53:55;;;;;;;5.80;2.08;;;;;;;;;;6205044;22;20015;-85
2022/01/20 17:59:13;;;;;;;8.48;1.63;;;;;;;;;;6218425;23;20106;-83
2022/01/20 18:02:36;;;;;;;4.57;1.77;;;;;;;;;;6146063;23;20027;-84
2022/01/20 18:09:27;;;;;;;8.35;1.85;;;;;;;;;;6139957;23;20481;-85
2022/01/20 18:11:56;;;;;;;4.53;1.10;;;;;;;;;;6120378;23;20538;-85
2022/01/20 18:14:22;;;;;;;4.00;1.25;;;;;;;;;;6071038;23;20499;-84
2022/01/20 18:17:06;;;;;;;7.00;1.38;;;;;;;;;;6174955;22;20016;-84
2022/01/20 18:19:32;;;;;;;9.10;1.65;;;;;;;;;;6254527;22;20086;-82
2022/01/20 18:22:00;;;;;;;6.72;1.25;;;;;;;;;;6221960;22;20041;-83
2022/01/20 18:24:27;;;;;;;9.40;1.40;;;;;;;;;;6207019;22;20091;-84
2022/01/20 18:26:55;;;;;;;5.55;1.77;;;;;;;;;;6247042;22;20071;-83
2022/01/20 18:29:21;;;;;;;5.57;1.40;;;;;;;;;;6221470;22;20075;-83
2022/01/20 18:31:48;;;;;;;6.18;1.40;;;;;;;;;;6220651;22;20453;-83
2022/01/20 18:34:18;;;;;;;6.47;1.48;;;;;;;;;;6217638;22;20016;-83
2022/01/20 18:36:44;;;;;;;5.35;1.33;;;;;;;;;;6221598;22;20453;-83
2022/01/20 18:39:10;;;;;;;6.78;1.52;;;;;;;;;;6222116;22;20016;-84
2022/01/20 18:41:40;;;;;;;9.57;2.03;;;;;;;;;;6223562;22;20063;-84
2022/01/20 18:44:06;;;;;;;6.05;1.48;;;;;;;;;;6219131;22;20051;-84
2022/01/20 18:46:35;;;;;;;2.38;1.02;;;;;;;;;;6220704;22;20012;-84
2022/01/20 18:49:01;;;;;;;6.85;1.60;;;;;;;;;;6237587;22;20521;-84
2022/01/20 18:51:27;;;;;;;5.82;1.70;;;;;;;;;;6247686;22;20038;-85
2022/01/20 18:53:52;;;;;;;6.45;1.60;;;;;;;;;;6251176;22;20015;-84
2022/01/20 18:56:20;;;;;;;6.80;1.15;;;;;;;;;;6251389;22;20027;-84
2022/01/20 18:58:46;;;;;;;8.00;1.80;;;;;;;;;;6252333;22;20019;-84
2022/01/20 19:01:13;;;;;;;4.95;1.90;;;;;;;;;;6251157;22;20503;-84
2022/01/20 19:03:40;;;;;;;5.53;1.65;;;;;;;;;;6250896;22;20022;-84
2022/01/20 19:06:06;;;;;;;5.60;1.45;;;;;;;;;;6250777;22;20013;-85
2022/01/20 19:08:32;;;;;;;8.95;2.28;;;;;;;;;;6251158;22;20082;-85
2022/01/20 19:10:58;;;;;;;7.60;1.77;;;;;;;;;;6249363;22;20358;-85
2022/01/20 19:13:27;;;;;;;7.50;1.98;;;;;;;;;;6241354;22;20058;-86
2022/01/20 19:15:55;;;;;;;10.95;3.53;;;;;;;;;;6253724;22;20353;-85
2022/01/20 19:35:40;;;;;;;5.72;1.58;;;;;;;;;;5957207;23;20026;-83
2022/01/20 20:44:00;;;;;;;5.60;1.30;;;;;;;;;;6264638;22;20019;-84
2022/01/20 20:46:26;;;;;;;6.43;1.50;;;;;;;;;;6302561;22;20094;-83
2022/01/20 20:48:52;;;;;;;6.95;1.33;;;;;;;;;;6300274;22;20121;-82
2022/01/20 20:51:17;;;;;;;8.10;1.35;;;;;;;;;;6250078;22;20457;-82
2022/01/20 20:53:43;;;;;;;4.97;1.75;;;;;;;;;;6251607;22;20016;-83
2022/01/20 20:56:09;;;;;;;3.55;1.27;;;;;;;;;;6252795;22;20400;-83
2022/01/20 20:58:35;;;;;;;4.78;1.55;;;;;;;;;;6250990;22;20084;-82
2022/01/20 21:01:02;;;;;;;4.53;1.35;;;;;;;;;;6302876;22;20059;-83
2022/01/20 21:03:28;;;;;;;3.38;1.23;;;;;;;;;;6303155;22;24929;-83
2022/01/20 21:05:54;;;;;;;3.33;0.90;;;;;;;;;;6248275;22;20463;-83
2022/01/20 21:08:20;;;;;;;2.38;0.90;;;;;;;;;;6253766;22;20019;-83
2022/01/20 21:10:45;;;;;;;5.13;0.93;;;;;;;;;;6252438;22;20011;-84
2022/01/20 21:13:11;;;;;;;5.63;1.00;;;;;;;;;;6250851;22;20328;-83
2022/01/20 21:15:37;;;;;;;6.15;1.00;;;;;;;;;;6252905;22;20098;-84
2022/01/20 21:18:03;;;;;;;5.68;1.25;;;;;;;;;;6277993;22;20039;-83
2022/01/20 21:20:31;;;;;;;6.20;1.00;;;;;;;;;;6249694;22;20397;-83
2022/01/20 21:22:57;;;;;;;5.72;1.30;;;;;;;;;;6253155;22;20019;-83
2022/01/20 21:25:54;;;;;;;3.35;0.82;;;;;;;;;;6289636;22;20437;-86
2022/01/20 21:28:25;;;;;;;7.95;1.40;;;;;;;;;;6220577;22;20019;-86
2022/01/20 21:30:53;;;;;;;2.47;1.00;;;;;;;;;;6218375;22;20105;-86
2022/01/20 21:33:35;;;;;;;4.68;1.13;;;;;;;;;;6246289;22;20508;-85
2022/01/20 21:36:05;;;;;;;7.25;0.98;;;;;;;;;;6240993;22;20306;-85
2022/01/20 21:38:40;;;;;;;12.40;1.83;;;;;;;;;;6303394;22;20020;-85
2022/01/20 21:41:16;;;;;;;4.05;1.17;;;;;;;;;;6231238;22;20080;-85
2022/01/20 21:44:12;;;;;;;10.27;2.15;;;;;;;;;;6232391;22;20356;-85
2022/01/20 21:47:24;;;;;;;;;;;;;;;;;;;;;
2022/01/20 21:50:56;;;;;;;6.57;1.27;;;;;;;;;;6162010;22;20691;-85
2022/01/20 21:53:35;;;;;;;8.18;1.77;;;;;;;;;;6182528;22;20024;-85
2022/01/20 21:56:04;;;;;;;9.63;1.98;;;;;;;;;;6184043;22;20074;-85
2022/01/20 21:58:54;;;;;;;6.53;1.30;;;;;;;;;;6161706;22;20013;-85
2022/01/20 22:01:54;;;;;;;7.85;1.60;;;;;;;;;;6215791;22;20020;-85
2022/01/20 22:04:28;;;;;;;5.35;1.30;;;;;;;;;;6180166;22;20091;-85
2022/01/20 22:07:07;;;;;;;5.93;1.35;;;;;;;;;;6213901;22;20019;-86
2022/01/20 22:09:36;;;;;;;5.93;1.65;;;;;;;;;;6203317;22;20011;-85
2022/01/20 22:12:11;;;;;;;4.63;1.58;;;;;;;;;;6169754;23;20016;-86
2022/01/20 22:14:37;;;;;;;10.68;1.70;;;;;;;;;;6181391;22;20110;-85
2022/01/20 22:17:04;;;;;;;7.18;1.98;;;;;;;;;;6215661;22;20461;-86
2022/01/20 22:19:30;;;;;;;6.68;1.30;;;;;;;;;;6226763;22;20024;-86
2022/01/20 22:22:03;;;;;;;3.35;1.20;;;;;;;;;;6236791;23;20331;-86
2022/01/20 22:24:33;;;;;;;6.55;1.30;;;;;;;;;;6189440;23;20032;-85
2022/01/20 22:27:02;;;;;;;3.72;1.00;;;;;;;;;;6212448;23;20564;-85
2022/01/20 22:29:29;;;;;;;6.07;1.27;;;;;;;;;;6212179;22;20023;-85
2022/01/20 22:31:58;;;;;;;5.85;1.35;;;;;;;;;;6212083;22;20320;-85
2022/01/20 22:34:25;;;;;;;4.90;1.40;;;;;;;;;;6214135;23;20028;-85
2022/01/20 22:36:55;;;;;;;2.80;1.17;;;;;;;;;;6204205;22;20024;-85
2022/01/20 22:39:21;;;;;;;5.88;1.20;;;;;;;;;;6240784;23;20020;-85
2022/01/20 22:41:47;;;;;;;10.60;1.40;;;;;;;;;;6186349;22;20016;-85
2022/01/20 22:44:14;;;;;;;3.70;1.20;;;;;;;;;;6235461;23;20016;-84
2022/01/20 22:46:41;;;;;;;5.32;1.38;;;;;;;;;;6268992;22;20024;-84
2022/01/20 22:49:08;;;;;;;4.28;1.27;;;;;;;;;;6228275;22;20058;-85
2022/01/20 22:51:37;;;;;;;6.95;1.00;;;;;;;;;;6190987;22;20024;-85
2022/01/20 22:54:06;;;;;;;5.25;0.77;;;;;;;;;;6235035;23;20070;-84
2022/01/20 22:56:33;;;;;;;4.22;0.77;;;;;;;;;;6244210;22;20012;-85
2022/01/20 22:59:00;;;;;;;2.70;1.17;;;;;;;;;;6220080;23;20462;-85
2022/01/20 23:01:27;;;;;;;5.10;0.95;;;;;;;;;;6220612;23;20012;-85
2022/01/20 23:03:53;;;;;;;6.25;0.85;;;;;;;;;;6231297;22;20044;-85
2022/01/20 23:06:21;;;;;;;2.95;0.93;;;;;;;;;;6207826;22;20047;-84
2022/01/20 23:08:47;;;;;;;2.78;0.90;;;;;;;;;;6248638;22;20042;-84
2022/01/20 23:11:13;;;;;;;4.75;1.10;;;;;;;;;;6220081;23;20012;-84
2022/01/20 23:13:38;;;;;;;7.43;2.35;;;;;;;;;;6208701;23;20012;-85
2022/01/20 23:16:34;;;;;;;4.40;0.90;;;;;;;;;;6268772;22;20407;-85
2022/01/20 23:21:44;;;;;;;7.38;0.77;;;;;;;;;;6210263;22;20574;-85
2022/01/20 23:24:10;;;;;;;4.10;0.98;;;;;;;;;;6219616;23;20020;-84
2022/01/20 23:26:39;;;;;;;7.63;1.20;;;;;;;;;;6218330;23;20020;-85
2022/01/20 23:29:06;;;;;;;7.15;0.98;;;;;;;;;;6193189;23;20103;-86
2022/01/20 23:31:36;;;;;;;4.18;0.73;;;;;;;;;;6219050;23;20020;-86
2022/01/20 23:34:11;;;;;;;4.78;1.00;;;;;;;;;;6208507;22;20039;-85
2022/01/20 23:36:43;;;;;;;4.70;1.20;;;;;;;;;;6238476;23;20484;-85
2022/01/20 23:39:15;;;;;;;8.07;1.20;;;;;;;;;;6195833;23;20560;-86
2022/01/20 23:41:53;;;;;;;6.30;1.00;;;;;;;;;;6228693;22;20012;-85
2022/01/20 23:49:36;;;;;;;3.20;0.77;;;;;;;;;;6206905;23;20504;-85
2022/01/20 23:52:04;;;;;;;7.55;1.50;;;;;;;;;;6219020;23;20016;-85
2022/01/20 23:54:30;;;;;;;3.35;1.23;;;;;;;;;;6219586;23;20119;-85
2022/01/20 23:56:56;;;;;;;3.65;1.10;;;;;;;;;;6241362;23;20043;-84
2022/01/20 23:59:22;;;;;;;3.95;1.88;;;;;;;;;;6187065;23;20043;-85
